Bei Facebook empfehlenBei Twitter postenGoogle plusPinterest

Das Wetter im Erzgebirge am 24.08.2016

Wetter und Klima am 24.08.2016 Holzhau im Erzgebirge (630m ü.NN)
Letzte gemessene Temperatur und Uhrzeit der Messung23:45:00 Uhr13.20 °C
Temperatur (Maximum / Höchstwert) und Uhrzeit der Messung14:00:00 Uhr28.10 °C
Temperatur (Minimum / Tiefstwert) und Uhrzeit der Messung06:45:0010.50 °C
Errechneter Absolutwert der Temperaturschwankungen zwischen Tmin und Tmax des Tages17.60 K
Errechnete Tagesmitteltemperatur18.49583 °C
Gesamt - Niederschlag des Tages (in flüssiger Form)0.00 Liter / m²
Luftdruck (Maximum / Höchstwert) und Zeitpunkt der Messung00:45:00 Uhr1024.30 hPa
Luftdruck (Minimum / Tiefstwert) und Zeitpunkt der Messung23:45:00 Uhr1021.90 hPa
Errechneter Absolutwert der Luftdruckschwankungen des Tages2.40 hPa
Höchste gemessene Windgeschwindigkeit und Uhrzeit der Messung23:45:00 Uhr0.00 km/h
Errechnete Windhäufigkeit in Relation zu den Messwerten des Tages0.00000 %
Niedrigste Windkühle (Windchill) und Zeitpunkt der Messung06:45:00 Uhr10.50 °C
Taupunkt (Maximum / Höchstwert) und Uhrzeit der Messung09:45:00 Uhr19.70 °C
Taupunkt (Minimum / Tiefstwert) und Uhrzeit der Messung06:45:009.40 °C
Anzahl der automatisch eingelesenen Messwerte 96

Detaillierte Wetter- und Klima- Messwerte für den 24.08.2016 in Holzhau im Erzgebirge (630m ü.NN)
ZeitTemperaturLuftdruckRel. LuftfeuchteWindWindrichtungWindchillTaupunktNiederschlag l/m²
23:45:0013.20 °C1021.90 hPa89.00 %11.40 °C 
23:30:0013.20 °C1021.90 hPa88.00 %11.30 °C 
23:15:0013.10 °C1022.10 hPa88.00 %11.20 °C 
23:00:0013.20 °C1021.90 hPa87.00 %11.10 °C 
22:45:0013.40 °C1022.10 hPa87.00 %11.30 °C 
22:30:0013.60 °C1022.00 hPa85.00 %11.10 °C 
22:15:0013.80 °C1022.00 hPa85.00 %11.30 °C 
22:00:0014.10 °C1022.00 hPa84.00 %11.40 °C 
21:45:0014.50 °C1022.10 hPa83.00 %11.60 °C 
21:30:0015.10 °C1022.20 hPa82.00 %12.10 °C 
21:15:0015.60 °C1022.00 hPa81.00 %12.40 °C 
21:00:0016.10 °C1022.10 hPa80.00 %12.70 °C 
20:45:0016.50 °C1022.10 hPa78.00 %12.70 °C 
20:30:0017.10 °C1022.10 hPa76.00 %12.80 °C 
20:15:0018.10 °C1022.10 hPa74.00 %13.40 °C 
20:00:0019.10 °C1022.10 hPa72.00 %13.90 °C 
19:45:0020.20 °C1022.10 hPa69.00 %14.30 °C 
19:30:0021.50 °C1022.00 hPa67.00 %15.10 °C 
19:15:0022.60 °C1022.10 hPa64.00 %15.40 °C 
19:00:0023.40 °C1022.10 hPa62.00 %15.70 °C 
18:45:0024.10 °C1022.20 hPa60.00 %15.90 °C 
18:30:0024.70 °C1022.40 hPa59.00 %16.20 °C 
18:15:0025.10 °C1022.40 hPa58.00 %16.30 °C 
18:00:0025.60 °C1022.50 hPa57.00 %16.40 °C 
17:45:0026.10 °C1022.50 hPa57.00 %16.90 °C 
17:30:0026.10 °C1022.80 hPa58.00 %17.20 °C 
17:15:0025.90 °C1022.50 hPa58.00 %17.00 °C 
17:00:0026.00 °C1022.60 hPa60.00 %17.60 °C 
16:45:0025.90 °C1022.50 hPa60.00 %17.50 °C 
16:30:0025.20 °C1022.40 hPa62.00 %17.40 °C 
16:15:0025.40 °C1022.40 hPa61.00 %17.30 °C 
16:00:0025.60 °C1022.40 hPa62.00 %17.80 °C 
15:45:0025.40 °C1022.60 hPa62.00 %17.60 °C 
15:30:0025.90 °C1022.70 hPa60.00 %17.50 °C 
15:15:0026.50 °C1022.70 hPa58.00 %17.60 °C 
15:00:0027.90 °C1022.60 hPa56.00 %18.30 °C 
14:45:0027.60 °C1022.80 hPa59.00 %18.90 °C 
14:30:0026.30 °C1022.80 hPa61.00 %18.20 °C 
14:15:0027.30 °C1022.90 hPa55.00 %17.50 °C 
14:00:0028.10 °C1023.00 hPa55.00 %18.20 °C 
13:45:0027.40 °C1022.90 hPa58.00 %18.40 °C 
13:30:0026.90 °C1022.90 hPa57.00 %17.70 °C 
13:15:0026.80 °C1022.90 hPa58.00 %17.80 °C 
13:00:0026.00 °C1023.00 hPa58.00 %17.10 °C 
12:45:0026.70 °C1023.10 hPa58.00 %17.70 °C 
12:30:0026.80 °C1023.20 hPa58.00 %17.80 °C 
12:15:0026.10 °C1023.30 hPa60.00 %17.70 °C 
12:00:0025.80 °C1023.30 hPa60.00 %17.40 °C 
11:45:0025.30 °C1023.50 hPa61.00 %17.20 °C 
11:30:0025.50 °C1023.30 hPa61.00 %17.40 °C 
11:15:0025.10 °C1023.40 hPa62.00 %17.30 °C 
11:00:0024.80 °C1023.50 hPa65.00 %17.80 °C 
10:45:0024.40 °C1023.50 hPa67.00 %17.90 °C 
10:30:0024.20 °C1023.70 hPa70.00 %18.40 °C 
10:15:0023.80 °C1023.50 hPa74.00 %18.90 °C 
10:00:0022.90 °C1023.70 hPa78.00 %18.90 °C 
09:45:0022.30 °C1023.80 hPa85.00 %19.70 °C 
09:30:0021.20 °C1023.70 hPa90.00 %19.50 °C 
09:15:0019.70 °C1023.70 hPa93.00 %18.50 °C 
09:00:0018.40 °C1023.70 hPa94.00 %17.40 °C 
08:45:0017.20 °C1023.80 hPa94.00 %16.20 °C 
08:30:0015.90 °C1023.50 hPa94.00 %14.90 °C 
08:15:0014.90 °C1023.50 hPa94.00 %13.90 °C 
08:00:0013.90 °C1023.60 hPa94.00 %13.00 °C 
07:45:0012.90 °C1023.50 hPa94.00 %12.00 °C 
07:30:0011.60 °C1023.80 hPa94.00 %10.70 °C 
07:15:0010.90 °C1023.90 hPa93.00 %9.80 °C 
07:00:0010.70 °C1023.80 hPa93.00 %9.60 °C 
06:45:0010.50 °C1023.70 hPa93.00 %9.40 °C 
06:30:0010.50 °C1023.50 hPa93.00 %9.40 °C 
06:15:0010.50 °C1023.50 hPa93.00 %9.40 °C 
06:00:0010.80 °C1023.80 hPa93.00 %9.70 °C 
05:45:0010.80 °C1023.70 hPa93.00 %9.70 °C 
05:30:0010.90 °C1023.60 hPa93.00 %9.80 °C 
05:15:0010.90 °C1023.40 hPa93.00 %9.80 °C 
05:00:0010.80 °C1023.60 hPa93.00 %9.70 °C 
04:45:0010.60 °C1023.70 hPa92.00 %9.40 °C 
04:30:0010.60 °C1023.60 hPa92.00 %9.40 °C 
04:15:0010.80 °C1023.80 hPa92.00 %9.60 °C 
04:00:0011.00 °C1023.90 hPa92.00 %9.80 °C 
03:45:0011.10 °C1023.80 hPa91.00 %9.70 °C 
03:30:0011.20 °C1023.80 hPa91.00 %9.80 °C 
03:15:0011.30 °C1023.90 hPa91.00 %9.90 °C 
03:00:0011.60 °C1023.90 hPa91.00 %10.20 °C 
02:45:0011.90 °C1024.10 hPa91.00 %10.50 °C 
02:30:0012.10 °C1024.00 hPa90.00 %10.50 °C 
02:15:0012.10 °C1024.10 hPa90.00 %10.50 °C 
02:00:0012.40 °C1024.20 hPa90.00 %10.80 °C 
01:45:0012.60 °C1024.00 hPa90.00 %11.00 °C 
01:30:0012.70 °C1024.20 hPa89.00 %10.90 °C 
01:15:0012.80 °C1024.10 hPa88.00 %10.90 °C 
01:00:0012.90 °C1024.10 hPa88.00 %11.00 °C 
00:45:0013.30 °C1024.30 hPa87.00 %11.20 °C 
00:30:0013.80 °C1024.30 hPa86.00 %11.50 °C 
00:15:0014.30 °C1024.20 hPa86.00 %12.00 °C 
00:00:0014.60 °C1024.10 hPa85.00 %12.10 °C 

Permanenter Link zu dieser Seite: Wetter im Erzgebirge am 24.08.2016
Performance-Info: Die Erstellung der Seite / Statistik(en) / Tabelle(n) erforderte 5 Datenbankserver-Abfrage(n) und dauerte 187 Millisekunden. (Dieser Messwert ist von der Gesamt-Auslastung des Servers abhängig.)
Erzgebirge - Wetter | Erzgebirge - Wetter (Mobilgeräte) | Komplette Klimadatenbank